Terminal Aerodrome Forecast
Issued by NWS

Home | Current Version | Previous Version | Text Only | Print | Product List | Glossary On
Versions: 1 2 3 4 5 6 7 8 9 10 11 12
900
FTUS45 KRIW 271121
TAFLND
TAF
KLND 271121Z 2712/2812 VRB06KT P6SM SCT100 SCT150
     FM271600 VRB05KT P6SM SCT080 BKN120
     FM272200 VRB05KT P6SM VCSH SCT040 BKN070
     FM280200 06006KT 6SM -RA BR SCT015 BKN025
     FM281000 VRB05KT 5SM -SNRA BR SCT008 BKN015=

USA.gov is the U.S. government's official web portal to all federal, state and local government web resources and services.